Warning: Javascript must be enabled to use all the features on this page!


Page Loading - Please Wait...

Click to hideNews Bulletins
Click to hide state-specific text


* IMPORTANT: Next Generation Station Page

USGS 14162500 MCKENZIE RIVER NEAR VIDA, OR

PROVISIONAL DATA SUBJECT TO REVISION

Click to hidestation-specific text

Station operated in cooperation with Eugene Water and Electric Board.

NOTE: River forecasts and additional data can be obtained at the 
National Weather Service's Advanced Hydrologic Prediction Services web page.

NOTE: The most current shifted rating for this site can be found at USGS Rating Depot website.

NOTE: Specific Gage Analysis and Discharge Measurement Cross Sections can be found here.
Boating safety tips
Available Parameters Available Period
All 10 Available Parameters for this site
  
00010 Temperature, water 2007-10-01  2019-06-17
00060 Discharge 1986-10-01  2019-06-17
00065 Gage height 2007-10-01  2019-06-17
00095 Specific cond at 25C 2015-02-05  2019-06-17
00300 Dissolved oxygen 2015-02-05  2019-06-17
00400 pH 2015-05-21  2019-06-17
32295 fDOM, water, in situ 2016-06-17  2019-06-17
32316 fChl, water, in situ 2019-03-21  2019-06-17
32319 fPC, water, in situ 2019-03-21  2019-06-17
63680 Turbidity, Form Neph 2015-02-05  2019-06-17

Graph
Graph w/ stats
Graph w/o stats
Graph w/ (up to 3) parms
Table
Tab-separated
Days  (10)
 

  -- or --
Begin date
 

End date
 

Summary of all available data for this site
Instantaneous-data availability statement






Date / Time
Specif-
ic
conduc-
tance,
wat unf
uS/cm @
25 degC,

pH,
water,
unfltrd
field,
std
units,



Temper-
ature,
water,
deg C,




Dis-
charge,
ft3/s,
Turbid-
ity,
IR LED
light,
det ang
90 deg,
FNU,




Gage
height,
feet,



Dis-
solved
oxygen,
mg/L,
fDOM
fluor-
escence
water,
in situ
ug/L
QSE,
06/07/2019 00:00 PDT43P  7.2P  9.8P  4,220P  0.9P  2.53P  10.9P  5.78P  
06/07/2019 00:15 PDT      9.8P  4,200P     2.52P        
06/07/2019 00:30 PDT      9.7P  4,240P     2.54P        
06/07/2019 00:45 PDT      9.6P  4,280P     2.56P        
06/07/2019 01:00 PDT43P  7.2P  9.6P  4,260P  0.9P  2.55P  11.0P  5.86P  
06/07/2019 01:15 PDT      9.5P  4,260P     2.55P        
06/07/2019 01:30 PDT      9.5P  4,260P     2.55P        
06/07/2019 01:45 PDT      9.5P  4,260P     2.55P        
06/07/2019 02:00 PDT44P  7.2P  9.4P  4,260P  0.9P  2.55P  11.0P  5.82P  
06/07/2019 02:15 PDT      9.4P  4,260P     2.55P        
06/07/2019 02:30 PDT      9.4P  4,240P     2.54P        
06/07/2019 02:45 PDT      9.4P  4,260P     2.55P        
06/07/2019 03:00 PDT44P  7.2P  9.4P  4,240P  0.9P  2.54P  11.0P  5.73P  
06/07/2019 03:15 PDT      9.4P  4,240P     2.54P        
06/07/2019 03:30 PDT      9.4P  4,260P     2.55P        
06/07/2019 03:45 PDT      9.3P  4,260P     2.55P        
06/07/2019 04:00 PDT44P  7.3P  9.3P  4,260P  0.9P  2.55P  11.1P  5.81P  
06/07/2019 04:15 PDT      9.3P  4,260P     2.55P        
06/07/2019 04:30 PDT      9.2P  4,280P     2.56P        
06/07/2019 04:45 PDT      9.2P  4,280P     2.56P        
06/07/2019 05:00 PDT44P  7.2P  9.2P  4,240P  0.9P  2.54P  11.1P  5.95P  
06/07/2019 05:15 PDT      9.1P  4,220P     2.53P        
06/07/2019 05:30 PDT      9.1P  4,240P     2.54P        
06/07/2019 05:45 PDT      9.1P  4,240P     2.54P        
06/07/2019 06:00 PDT44P  7.2P  9.1P  4,260P  0.9P  2.55P  11.1P  6.00P  
06/07/2019 06:15 PDT      9.0P  4,240P     2.54P        
06/07/2019 06:30 PDT      9.0P  4,240P     2.54P        
06/07/2019 06:45 PDT      9.0P  4,240P     2.54P        
06/07/2019 07:00 PDT43P  7.2P  9.0P  4,260P  1.0P  2.55P  11.2P  6.03P  
06/07/2019 07:15 PDT      8.9P  4,240P     2.54P        
06/07/2019 07:30 PDT      8.9P  4,240P     2.54P        
06/07/2019 07:45 PDT      8.9P  4,240P     2.54P        
06/07/2019 08:00 PDT43P  7.3P  8.9P  4,240P  1.0P  2.54P  11.3P  6.01P  
06/07/2019 08:15 PDT      8.9P  4,220P     2.53P        
06/07/2019 08:30 PDT      8.9P  4,220P     2.53P        
06/07/2019 08:45 PDT      8.9P  4,240P     2.54P        
06/07/2019 09:00 PDT43P  7.3P  8.9P  4,220P  0.8P  2.53P  11.4P  5.85P  
06/07/2019 09:15 PDT      9.0P  4,260P     2.55P        
06/07/2019 09:30 PDT      9.0P  4,280P     2.56P        
06/07/2019 09:45 PDT      9.0P  4,280P     2.56P        
06/07/2019 10:00 PDT43P  7.3P  9.1P  4,240P  0.9P  2.54P  11.4P  5.67P  
06/07/2019 10:15 PDT      9.1P  4,240P     2.54P        
06/07/2019 10:30 PDT      9.1P  4,240P     2.54P        
06/07/2019 10:45 PDT      9.2P  4,240P     2.54P        
06/07/2019 11:00 PDT43P  7.4P  9.3P  4,220P  0.9P  2.53P  11.4P  5.41P  
06/07/2019 11:15 PDT      9.4P  4,220P     2.53P        
06/07/2019 11:30 PDT      9.5P  4,240P     2.54P        
06/07/2019 11:45 PDT      9.7P  4,260P     2.55P        
06/07/2019 12:00 PDT43P  7.5P  9.8P  4,240P  0.8P  2.54P  11.4P  5.05P  
06/07/2019 12:15 PDT      9.8P  4,260P     2.55P        
06/07/2019 12:30 PDT      9.9P  4,220P     2.53P        
06/07/2019 12:45 PDT      9.9P  4,260P     2.55P        
06/07/2019 13:00 PDT43P  7.5P  9.9P  4,280P  0.8P  2.56P  11.3P  4.97P  
06/07/2019 13:15 PDT      10.0P  4,220P     2.53P        
06/07/2019 13:30 PDT      10.1P  4,260P     2.55P        
06/07/2019 13:45 PDT      10.1P  4,240P     2.54P        
06/07/2019 14:00 PDT43P  7.5P  10.1P  4,260P  0.8P  2.55P  11.3P  4.89P  
06/07/2019 14:15 PDT      10.0P  4,240P     2.54P        
06/07/2019 14:30 PDT      10.1P  4,260P     2.55P        
06/07/2019 14:45 PDT      10.1P  4,260P     2.55P        
06/07/2019 15:00 PDT43P  7.5P  10.2P  4,260P  0.8P  2.55P  11.3P  4.81P  
06/07/2019 15:15 PDT      10.3P  4,310P     2.57P        
06/07/2019 15:30 PDT      10.3P  4,280P     2.56P        
06/07/2019 15:45 PDT      10.4P  4,260P     2.55P        
06/07/2019 16:00 PDT43P  7.5P  10.3P  4,280P  0.8P  2.56P  11.3P  4.85P  
06/07/2019 16:15 PDT      10.3P  4,280P     2.56P        
06/07/2019 16:30 PDT      10.3P  4,260P     2.55P        
06/07/2019 16:45 PDT      10.4P  4,260P     2.55P        
06/07/2019 17:00 PDT43P  7.5P  10.5P  4,280P  0.8P  2.56P  11.2P  4.83P  
06/07/2019 17:15 PDT      10.6P  4,280P     2.56P        
06/07/2019 17:30 PDT      10.5P  4,240P     2.54P        
06/07/2019 17:45 PDT      10.4P  4,260P     2.55P        
06/07/2019 18:00 PDT43P  7.5P  10.4P  4,260P  0.9P  2.55P  11.2P  4.91P  
06/07/2019 18:15 PDT      10.4P  4,260P     2.55P        
06/07/2019 18:30 PDT      10.5P  4,280P     2.56P        
06/07/2019 18:45 PDT      10.5P  4,260P     2.55P        
06/07/2019 19:00 PDT43P  7.4P  10.5P  4,240P  0.8P  2.54P  11.1P  4.94P  
06/07/2019 19:15 PDT      10.5P  4,260P     2.55P        
06/07/2019 19:30 PDT      10.5P  4,260P     2.55P        
06/07/2019 19:45 PDT      10.4P  4,280P     2.56P        
06/07/2019 20:00 PDT43P  7.4P  10.4P  4,260P  0.8P  2.55P  11.1P  5.05P  
06/07/2019 20:15 PDT      10.3P  4,240P     2.54P        
06/07/2019 20:30 PDT      10.2P  4,310P     2.57P        
06/07/2019 20:45 PDT      10.2P  4,280P     2.56P        
06/07/2019 21:00 PDT43P  7.4P  10.1P  4,280P  0.8P  2.56P  11.1P  5.29P  
06/07/2019 21:15 PDT      10.1P  4,310P     2.57P        
06/07/2019 21:30 PDT      10.0P  4,330P     2.58P        
06/07/2019 21:45 PDT      10.0P  4,310P     2.57P        
06/07/2019 22:00 PDT43P  7.3P  9.9P  4,280P  0.8P  2.56P  11.0P  5.43P  
06/07/2019 22:15 PDT      9.9P  4,310P     2.57P        
06/07/2019 22:30 PDT      9.8P  4,310P     2.57P        
06/07/2019 22:45 PDT      9.8P  4,310P     2.57P        
06/07/2019 23:00 PDT44P  7.3P  9.7P  4,330P  0.8P  2.58P  11.1P  5.60P  
06/07/2019 23:15 PDT      9.6P  4,310P     2.57P        
06/07/2019 23:30 PDT      9.6P  4,280P     2.56P        
06/07/2019 23:45 PDT      9.6P  4,310P     2.57P        
06/08/2019 00:00 PDT44P  7.3P  9.5P  4,310P  0.8P  2.57P  11.1P  5.75P  
06/08/2019 00:15 PDT      9.5P  4,310P     2.57P        
06/08/2019 00:30 PDT      9.4P  4,280P     2.56P        
06/08/2019 00:45 PDT      9.4P  4,260P     2.55P        
06/08/2019 01:00 PDT44P  7.3P  9.3P  4,280P  0.8P  2.56P  11.1P  5.86P  
06/08/2019 01:15 PDT      9.3P  4,310P     2.57P        
06/08/2019 01:30 PDT      9.2P  4,310P     2.57P        
06/08/2019 01:45 PDT      9.2P  4,310P     2.57P        
06/08/2019 02:00 PDT44P  7.3P  9.1P  4,330P  0.9P  2.58P  11.2P  6.06P  
06/08/2019 02:15 PDT      9.1P  4,310P     2.57P        
06/08/2019 02:30 PDT      9.0P  4,240P     2.54P        
06/08/2019 02:45 PDT      9.0P  4,280P     2.56P        
06/08/2019 03:00 PDT44P  7.3P  9.0P  4,310P  0.8P  2.57P  11.3P  6.13P  
06/08/2019 03:15 PDT      8.9P  4,280P     2.56P        
06/08/2019 03:30 PDT      8.9P  4,280P     2.56P        
06/08/2019 03:45 PDT      8.9P  4,280P     2.56P        
06/08/2019 04:00 PDT44P  7.2P  8.8P  4,310P  0.8P  2.57P  11.3P  6.22P  
06/08/2019 04:15 PDT      8.8P  4,280P     2.56P        
06/08/2019 04:30 PDT      8.8P  4,260P     2.55P        
06/08/2019 04:45 PDT      8.8P  4,260P     2.55P        
06/08/2019 05:00 PDT44P  7.2P  8.8P  4,280P  0.8P  2.56P  11.3P  6.26P  
06/08/2019 05:15 PDT      8.7P  4,280P     2.56P        
06/08/2019 05:30 PDT      8.7P  4,280P     2.56P        
06/08/2019 05:45 PDT      8.7P  4,260P     2.55P        
06/08/2019 06:00 PDT44P  7.3P  8.7P  4,310P  0.9P  2.57P  11.3P  6.27P  
06/08/2019 06:15 PDT      8.7P  4,310P     2.57P        
06/08/2019 06:30 PDT      8.6P  4,280P     2.56P        
06/08/2019 06:45 PDT      8.6P  4,280P     2.56P        
06/08/2019 07:00 PDT44P  7.3P  8.6P  4,260P  0.9P  2.55P  11.4P  6.26P  
06/08/2019 07:15 PDT      8.7P  4,280P     2.56P        
06/08/2019 07:30 PDT      8.7P  4,280P     2.56P        
06/08/2019 07:45 PDT      8.7P  4,260P     2.55P        
06/08/2019 08:00 PDT44P  7.3P  8.7P  4,260P  0.9P  2.55P  11.4P  6.03P  
06/08/2019 08:15 PDT      8.8P  4,280P     2.56P        
06/08/2019 08:30 PDT      8.8P  4,260P     2.55P        
06/08/2019 08:45 PDT      8.8P  4,280P     2.56P        
06/08/2019 09:00 PDT44P  7.3P  8.8P  4,260P  0.8P  2.55P  11.5P  5.82P  
06/08/2019 09:15 PDT      8.9P  4,240P     2.54P        
06/08/2019 09:30 PDT      9.0P  4,260P     2.55P        
06/08/2019 09:45 PDT      9.1P  4,260P     2.55P        
06/08/2019 10:00 PDT44P  7.4P  9.1P  4,260P  0.8P  2.55P  11.5P  5.45P  
06/08/2019 10:15 PDT      9.2P  4,240P     2.54P        
06/08/2019 10:30 PDT      9.4P  4,220P     2.53P        
06/08/2019 10:45 PDT      9.5P  4,220P     2.53P        
06/08/2019 11:00 PDT44P  7.4P  9.6P  4,220P  0.8P  2.53P  11.5P  5.16P  
06/08/2019 11:15 PDT      9.7P  4,240P     2.54P        
06/08/2019 11:30 PDT      9.8P  4,260P     2.55P        
06/08/2019 11:45 PDT      9.9P  4,240P     2.54P        
06/08/2019 12:00 PDT44P  7.5P  10.1P  4,280P  0.8P  2.56P  11.5P  4.85P  
06/08/2019 12:15 PDT      10.2P  4,260P     2.55P        
06/08/2019 12:30 PDT      10.4P  4,240P     2.54P        
06/08/2019 12:45 PDT      10.5P  4,240P     2.54P        
06/08/2019 13:00 PDT44P  7.5P  10.7P  4,220P  0.8P  2.53P  11.4P  4.70P  
06/08/2019 13:15 PDT      10.8P  4,220P     2.53P        
06/08/2019 13:30 PDT      10.9P  4,220P     2.53P        
06/08/2019 13:45 PDT      11.0P  4,220P     2.53P        
06/08/2019 14:00 PDT44P  7.5P  11.1P  4,240P  0.8P  2.54P  11.3P  4.56P  
06/08/2019 14:15 PDT      11.2P  4,260P     2.55P        
06/08/2019 14:30 PDT      11.4P  4,220P     2.53P        
06/08/2019 14:45 PDT      11.4P  4,240P     2.54P        
06/08/2019 15:00 PDT44P  7.6P  11.5P  4,240P  0.8P  2.54P  11.2P  4.47P  
06/08/2019 15:15 PDT      11.6P  4,220P     2.53P        
06/08/2019 15:30 PDT      11.7P  4,220P     2.53P        
06/08/2019 15:45 PDT      11.8P  4,240P     2.54P        
06/08/2019 16:00 PDT44P  7.6P  11.9P  4,220P  0.7P  2.53P  11.1P  4.47P  
06/08/2019 16:15 PDT      12.0P  4,240P     2.54P        
06/08/2019 16:30 PDT      12.0P  4,220P     2.53P        
06/08/2019 16:45 PDT      12.0P  4,240P     2.54P        
06/08/2019 17:00 PDT44P  7.6P  12.1P  4,200P  0.7P  2.52P  11.0P  4.50P  
06/08/2019 17:15 PDT      12.1P  4,200P     2.52P        
06/08/2019 17:30 PDT      12.1P  4,200P     2.52P        
06/08/2019 17:45 PDT      12.0P  4,240P     2.54P        
06/08/2019 18:00 PDT44P  7.5P  12.0P  4,240P  0.8P  2.54P  10.9P  4.61P  
06/08/2019 18:15 PDT      11.9P  4,220P     2.53P        
06/08/2019 18:30 PDT      11.9P  4,200P     2.52P        
06/08/2019 18:45 PDT      11.8P  4,220P     2.53P        
06/08/2019 19:00 PDT44P  7.5P  11.7P  4,200P  0.7P  2.52P  10.9P  4.79P  
06/08/2019 19:15 PDT      11.6P  4,200P     2.52P        
06/08/2019 19:30 PDT      11.5P  4,200P     2.52P        
06/08/2019 19:45 PDT      11.4P  4,200P     2.52P        
06/08/2019 20:00 PDT44P  7.4P  11.4P  4,200P  0.8P  2.52P  10.9P  5.02P  
06/08/2019 20:15 PDT      11.3P  4,180P     2.51P        
06/08/2019 20:30 PDT      11.2P  4,180P     2.51P        
06/08/2019 20:45 PDT      11.1P  4,200P     2.52P        
06/08/2019 21:00 PDT44P  7.4P  11.0P  4,180P  0.8P  2.51P  10.9P  5.31P  
06/08/2019 21:15 PDT      10.8P  4,200P     2.52P        
06/08/2019 21:30 PDT      10.8P  4,180P     2.51P        
06/08/2019 21:45 PDT      10.7P  4,200P     2.52P        
06/08/2019 22:00 PDT44P  7.3P  10.6P  4,200P  0.8P  2.52P  10.9P  5.52P  
06/08/2019 22:15 PDT      10.5P  4,160P     2.50P        
06/08/2019 22:30 PDT      10.4P  4,160P     2.50P        
06/08/2019 22:45 PDT      10.4P  4,200P     2.52P        
06/08/2019 23:00 PDT44P  7.3P  10.3P  4,220P  0.9P  2.53P  10.9P  5.71P  
06/08/2019 23:15 PDT      10.2P  4,180P     2.51P        
06/08/2019 23:30 PDT      10.1P  4,160P     2.50P        
06/08/2019 23:45 PDT      10.0P  4,180P     2.51P        
06/09/2019 00:00 PDT44P  7.2P  10.0P  4,160P  0.8P  2.50P  11.0P  5.86P  
06/09/2019 00:15 PDT      9.9P  4,180P     2.51P        
06/09/2019 00:30 PDT      9.8P  4,200P     2.52P        
06/09/2019 00:45 PDT      9.7P  4,200P     2.52P        
06/09/2019 01:00 PDT44P  7.2P  9.6P  4,180P  0.8P  2.51P  11.1P  6.04P  
06/09/2019 01:15 PDT      9.5P  4,200P     2.52P        
06/09/2019 01:30 PDT      9.4P  4,200P     2.52P        
06/09/2019 01:45 PDT      9.3P  4,200P     2.52P        
06/09/2019 02:00 PDT44P  7.2P  9.2P  4,200P  0.8P  2.52P  11.2P  6.15P  
06/09/2019 02:15 PDT      9.1P  4,180P     2.51P        
06/09/2019 02:30 PDT      9.0P  4,180P     2.51P        
06/09/2019 02:45 PDT      9.0P  4,160P     2.50P        
06/09/2019 03:00 PDT44P  7.2P  8.9P  4,180P  0.8P  2.51P  11.3P  6.25P  
06/09/2019 03:15 PDT      8.8P  4,200P     2.52P        
06/09/2019 03:30 PDT      8.8P  4,180P     2.51P        
06/09/2019 03:45 PDT      8.8P  4,160P     2.50P        
06/09/2019 04:00 PDT44P  7.2P  8.8P  4,160P  0.8P  2.50P  11.3P  6.08P  
06/09/2019 04:15 PDT      8.8P  4,160P     2.50P        
06/09/2019 04:30 PDT      8.8P  4,160P     2.50P        
06/09/2019 04:45 PDT      8.8P  4,160P     2.50P        
06/09/2019 05:00 PDT44P  7.3P  8.8P  4,180P  0.9P  2.51P  11.3P  5.87P  
06/09/2019 05:15 PDT      8.9P  4,200P     2.52P        
06/09/2019 05:30 PDT      8.9P  4,180P     2.51P        
06/09/2019 05:45 PDT      8.9P  4,160P     2.50P        
06/09/2019 06:00 PDT44P  7.2P  8.9P  4,180P  0.8P  2.51P  11.3P  5.76P  
06/09/2019 06:15 PDT      8.9P  4,180P     2.51P        
06/09/2019 06:30 PDT      8.9P  4,180P     2.51P        
06/09/2019 06:45 PDT      8.9P  4,180P     2.51P        
06/09/2019 07:00 PDT44P  7.3P  8.9P  4,160P  0.8P  2.50P  11.3P  5.67P  
06/09/2019 07:15 PDT      8.9P  4,160P     2.50P        
06/09/2019 07:30 PDT      8.9P  4,160P     2.50P        
06/09/2019 07:45 PDT      9.0P  4,140P     2.49P        
06/09/2019 08:00 PDT44P  7.3P  9.0P  4,180P  0.8P  2.51P  11.3P  5.51P  
06/09/2019 08:15 PDT      9.0P  4,180P     2.51P        
06/09/2019 08:30 PDT      9.0P  4,180P     2.51P        
06/09/2019 08:45 PDT      9.1P  4,160P     2.50P        
06/09/2019 09:00 PDT44P  7.3P  9.2P  4,180P  0.8P  2.51P  11.4P  5.33P  
06/09/2019 09:15 PDT      9.2P  4,140P     2.49P        
06/09/2019 09:30 PDT      9.3P  4,140P     2.49P        
06/09/2019 09:45 PDT      9.4P  4,160P     2.50P        
06/09/2019 10:00 PDT44P  7.4P  9.5P  4,180P  0.8P  2.51P  11.4P  5.05P  
06/09/2019 10:15 PDT      9.6P  4,200P     2.52P        
06/09/2019 10:30 PDT      9.7P  4,180P     2.51P        
06/09/2019 10:45 PDT      9.8P  4,160P     2.50P        
06/09/2019 11:00 PDT44P  7.4P  10.0P  4,160P  0.8P  2.50P  11.4P  4.77P  
06/09/2019 11:15 PDT      10.1P  4,160P     2.50P        
06/09/2019 11:30 PDT      10.3P  4,160P     2.50P        
06/09/2019 11:45 PDT      10.4P  4,160P     2.50P        
06/09/2019 12:00 PDT44P  7.5P  10.5P  4,160P  0.8P  2.50P  11.3P  4.52P  
06/09/2019 12:15 PDT      10.7P  4,160P     2.50P        
06/09/2019 12:30 PDT      10.8P  4,200P     2.52P        
06/09/2019 12:45 PDT      10.9P  4,160P     2.50P        
06/09/2019 13:00 PDT44P  7.5P  11.0P  4,200P  0.8P  2.52P  11.2P  4.42P  
06/09/2019 13:15 PDT      11.2P  4,160P     2.50P        
06/09/2019 13:30 PDT      11.3P  4,160P     2.50P        
06/09/2019 13:45 PDT      11.4P  4,160P     2.50P        
06/09/2019 14:00 PDT44P  7.5P  11.6P  4,180P  0.8P  2.51P  11.1P  4.30P  
06/09/2019 14:15 PDT      11.7P  4,160P     2.50P        
06/09/2019 14:30 PDT      11.8P  4,160P     2.50P        
06/09/2019 14:45 PDT      11.9P  4,160P     2.50P        
06/09/2019 15:00 PDT44P  7.6P  12.0P  4,140P  0.7P  2.49P  11.0P  4.28P  
06/09/2019 15:15 PDT      12.0P  4,160P     2.50P        
06/09/2019 15:30 PDT      12.1P  4,120P     2.48P        
06/09/2019 15:45 PDT      12.2P  4,180P     2.51P        
06/09/2019 16:00 PDT44P  7.6P  12.2P  4,140P  0.7P  2.49P  11.0P  4.27P  
06/09/2019 16:15 PDT      12.3P  4,160P     2.50P        
06/09/2019 16:30 PDT      12.3P  4,140P     2.49P        
06/09/2019 16:45 PDT      12.3P  4,140P     2.49P        
06/09/2019 17:00 PDT44P  7.6P  12.3P  4,140P  0.7P  2.49P  10.9P  4.38P  
06/09/2019 17:15 PDT      12.3P  4,160P     2.50P        
06/09/2019 17:30 PDT      12.3P  4,160P     2.50P        
06/09/2019 17:45 PDT      12.2P  4,140P     2.49P        
06/09/2019 18:00 PDT44P  7.5P  12.2P  4,180P  0.7P  2.51P  10.8P  4.52P  
06/09/2019 18:15 PDT      12.2P  4,140P     2.49P        
06/09/2019 18:30 PDT      12.1P  4,140P     2.49P        
06/09/2019 18:45 PDT      12.0P  4,120P     2.48P        
06/09/2019 19:00 PDT44P  7.5P  12.0P  4,140P  0.8P  2.49P  10.8P  4.68P  
06/09/2019 19:15 PDT      11.9P  4,120P     2.48P        
06/09/2019 19:30 PDT      11.8P  4,140P     2.49P        
06/09/2019 19:45 PDT      11.7P  4,140P     2.49P        
06/09/2019 20:00 PDT44P  7.4P  11.6P  4,120P  0.8P  2.48P  10.8P  4.87P  
06/09/2019 20:15 PDT      11.5P  4,120P     2.48P        
06/09/2019 20:30 PDT      11.5P  4,070P     2.46P        
06/09/2019 20:45 PDT      11.4P  4,120P     2.48P        
06/09/2019 21:00 PDT44P  7.4P  11.3P  4,100P  0.8P  2.47P  10.8P  5.11P  
06/09/2019 21:15 PDT      11.2P  4,100P     2.47P        
06/09/2019 21:30 PDT      11.1P  4,070P     2.46P        
06/09/2019 21:45 PDT      11.0P  4,100P     2.47P        
06/09/2019 22:00 PDT44P  7.3P  10.9P  4,070P  0.8P  2.46P  10.8P  5.33P  
06/09/2019 22:15 PDT      10.8P  4,050P     2.45P        
06/09/2019 22:30 PDT      10.8P  4,070P     2.46P        
06/09/2019 22:45 PDT      10.7P  4,070P     2.46P        
06/09/2019 23:00 PDT44P  7.3P  10.6P  4,070P  0.8P  2.46P  10.8P  5.54P  
06/09/2019 23:15 PDT      10.5P  4,070P     2.46P        
06/09/2019 23:30 PDT      10.5P  4,070P     2.46P        
06/09/2019 23:45 PDT      10.4P  4,050P     2.45P        
06/10/2019 00:00 PDT44P  7.3P  10.4P  4,070P  0.9P  2.46P  10.8P  5.63P  
06/10/2019 00:15 PDT      10.3P  4,070P     2.46P        
06/10/2019 00:30 PDT      10.3P  4,070P     2.46P        
06/10/2019 00:45 PDT      10.2P  4,070P     2.46P        
06/10/2019 01:00 PDT44P  7.2P  10.1P  4,070P  0.8P  2.46P  10.9P  5.75P  
06/10/2019 01:15 PDT      10.0P  4,070P     2.46P        
06/10/2019 01:30 PDT      9.9P  4,100P     2.47P        
06/10/2019 01:45 PDT      9.8P  4,070P     2.46P        
06/10/2019 02:00 PDT44P  7.2P  9.7P  4,070P  0.8P  2.46P  11.0P  5.93P  
06/10/2019 02:15 PDT      9.6P  4,070P     2.46P        
06/10/2019 02:30 PDT      9.5P  4,070P     2.46P        
06/10/2019 02:45 PDT      9.5P  4,100P     2.47P        
06/10/2019 03:00 PDT44P  7.2P  9.4P  4,050P  0.8P  2.45P  11.1P  5.91P  
06/10/2019 03:15 PDT      9.4P  4,100P     2.47P        
06/10/2019 03:30 PDT      9.4P  4,070P     2.46P        
06/10/2019 03:45 PDT      9.4P  4,100P     2.47P        
06/10/2019 04:00 PDT44P  7.2P  9.4P  4,070P  0.8P  2.46P  11.1P  5.66P  
06/10/2019 04:15 PDT      9.4P  4,120P     2.48P        
06/10/2019 04:30 PDT      9.5P  4,070P     2.46P        
06/10/2019 04:45 PDT      9.5P  4,070P     2.46P        
06/10/2019 05:00 PDT45P  7.2P  9.5P  4,070P  0.9P  2.46P  11.0P  5.46P  
06/10/2019 05:15 PDT      9.5P  4,050P     2.45P        
06/10/2019 05:30 PDT      9.5P  4,100P     2.47P        
06/10/2019 05:45 PDT      9.6P  4,070P     2.46P        
06/10/2019 06:00 PDT45P  7.2P  9.6P  4,100P  0.8P  2.47P  11.0P  5.36P  
06/10/2019 06:15 PDT      9.6P  4,100P     2.47P        
06/10/2019 06:30 PDT      9.6P  4,100P     2.47P        
06/10/2019 06:45 PDT      9.6P  4,100P     2.47P        
06/10/2019 07:00 PDT45P  7.2P  9.5P  4,070P  0.8P  2.46P  11.1P  5.31P  
06/10/2019 07:15 PDT      9.5P  4,120P     2.48P        
06/10/2019 07:30 PDT      9.5P  4,100P     2.47P        
06/10/2019 07:45 PDT      9.5P  4,100P     2.47P        
06/10/2019 08:00 PDT45P  7.3P  9.5P  4,100P  0.8P  2.47P  11.1P  5.30P  
06/10/2019 08:15 PDT      9.5P  4,070P     2.46P        
06/10/2019 08:30 PDT      9.5P  4,070P     2.46P        
06/10/2019 08:45 PDT      9.6P  4,120P     2.48P        
06/10/2019 09:00 PDT44P  7.3P  9.6P  4,100P  0.8P  2.47P  11.2P  5.09P  
06/10/2019 09:15 PDT      9.7P  4,120P     2.48P        
06/10/2019 09:30 PDT      9.7P  4,120P     2.48P        
06/10/2019 09:45 PDT      9.8P  4,140P     2.49P        
06/10/2019 10:00 PDT44P  7.4P  9.9P  4,160P  0.7P  2.50P  11.3P  4.85P  
06/10/2019 10:15 PDT      10.0P  4,120P     2.48P        
06/10/2019 10:30 PDT      10.1P  4,140P     2.49P        
06/10/2019 10:45 PDT      10.2P  4,160P     2.50P        
06/10/2019 11:00 PDT44P  7.4P  10.4P  4,120P  0.8P  2.48P  11.2P  4.61P  
06/10/2019 11:15 PDT      10.5P  4,140P     2.49P        
06/10/2019 11:30 PDT      10.6P  4,160P     2.50P        
06/10/2019 11:45 PDT      10.7P  4,120P     2.48P        
06/10/2019 12:00 PDT44P  7.4P  10.9P  4,140P  0.8P  2.49P  11.2P  4.48P  
06/10/2019 12:15 PDT      11.0P  4,160P     2.50P        
06/10/2019 12:30 PDT      11.1P  4,180P     2.51P        
06/10/2019 12:45 PDT      11.3P  4,140P     2.49P        
06/10/2019 13:00 PDT44P  7.5P  11.4P  4,160P  0.7P  2.50P  11.1P  4.35P  
06/10/2019 13:15 PDT      11.6P  4,180P     2.51P        
06/10/2019 13:30 PDT      11.7P  4,140P     2.49P        
06/10/2019 13:45 PDT      11.9P  4,140P     2.49P        
06/10/2019 14:00 PDT44P  7.6P  12.0P  4,120P  0.7P  2.48P  11.0P  4.27P  
06/10/2019 14:15 PDT      12.1P  4,070P     2.46P        
06/10/2019 14:30 PDT      12.2P  4,100P     2.47P        
06/10/2019 14:45 PDT      12.4P  4,100P     2.47P        
06/10/2019 15:00 PDT44P  7.6P  12.5P  4,120P  0.7P  2.48P  10.9P  4.21P  
06/10/2019 15:15 PDT      12.6P  4,050P     2.45P        
06/10/2019 15:30 PDT      12.7P  4,050P     2.45P        
06/10/2019 15:45 PDT      12.8P  4,010P     2.43P        
06/10/2019 16:00 PDT44P  7.6P  12.8P  4,030P  0.7P  2.44P  10.8P  4.17P  
06/10/2019 16:15 PDT      12.8P  4,010P     2.43P        
06/10/2019 16:30 PDT      12.9P  3,990P     2.42P        
06/10/2019 16:45 PDT      12.9P  3,970P     2.41P        
06/10/2019 17:00 PDT44P  7.6P  12.9P  3,970P  0.8P  2.41P  10.8P  4.23P  
06/10/2019 17:15 PDT      12.9P  3,930P     2.39P        
06/10/2019 17:30 PDT      12.9P  3,950P     2.40P        
06/10/2019 17:45 PDT      12.9P  3,930P     2.39P        
06/10/2019 18:00 PDT44P  7.5P  12.8P  3,930P  0.7P  2.39P  10.7P  4.35P  
06/10/2019 18:15 PDT      12.8P  3,910P     2.38P        
06/10/2019 18:30 PDT      12.7P  3,930P     2.39P        
06/10/2019 18:45 PDT      12.6P  3,910P     2.38P        
06/10/2019 19:00 PDT44P  7.5P  12.5P  3,910P  0.7P  2.38P  10.7P  4.55P  
06/10/2019 19:15 PDT      12.5P  3,870P     2.36P        
06/10/2019 19:30 PDT      12.4P  3,850P     2.35P        
06/10/2019 19:45 PDT      12.3P  3,850P     2.35P        
06/10/2019 20:00 PDT44P  7.4P  12.2P  3,810P  0.7P  2.33P  10.6P  4.71P  
06/10/2019 20:15 PDT      12.2P  3,810P     2.33P        
06/10/2019 20:30 PDT      12.1P  3,810P     2.33P        
06/10/2019 20:45 PDT      12.0P  3,790P     2.32P        
06/10/2019 21:00 PDT44P  7.4P  11.9P  3,790P  0.7P  2.32P  10.6P  4.96P  
06/10/2019 21:15 PDT      11.8P  3,790P     2.32P        
06/10/2019 21:30 PDT      11.7P  3,790P     2.32P        
06/10/2019 21:45 PDT      11.6P  3,790P     2.32P        
06/10/2019 22:00 PDT45P  7.3P  11.6P  3,790P  1.0P  2.32P  10.6P  5.23P  
06/10/2019 22:15 PDT      11.5P  3,810P     2.33P        
06/10/2019 22:30 PDT      11.4P  3,770P     2.31P        
06/10/2019 22:45 PDT      11.3P  3,770P     2.31P        
06/10/2019 23:00 PDT45P  7.3P  11.2P  3,770P  0.8P  2.31P  10.6P  5.18P  
06/10/2019 23:15 PDT      11.2P  3,790P     2.32P        
06/10/2019 23:30 PDT      11.1P  3,770P     2.31P        
06/10/2019 23:45 PDT      11.0P  3,770P     2.31P        
06/11/2019 00:00 PDT45P  7.2P  10.9P  3,770P  0.8P  2.31P  10.7P  5.38P  
06/11/2019 00:15 PDT      10.8P  3,770P     2.31P        
06/11/2019 00:30 PDT      10.8P  3,790P     2.32P        
06/11/2019 00:45 PDT      10.6P  3,790P     2.32P        
06/11/2019 01:00 PDT45P  7.2P  10.5P  3,790P  0.8P  2.32P  10.8P  5.54P  
06/11/2019 01:15 PDT      10.4P  3,790P     2.32P        
06/11/2019 01:30 PDT      10.3P  3,790P     2.32P        
06/11/2019 01:45 PDT      10.2P  3,770P     2.31P        
06/11/2019 02:00 PDT45P  7.2P  10.1P  3,770P  0.8P  2.31P  10.9P  5.64P  
06/11/2019 02:15 PDT      10.0P  3,790P     2.32P        
06/11/2019 02:30 PDT      9.9P  3,770P     2.31P        
06/11/2019 02:45 PDT      9.8P  3,770P     2.31P        
06/11/2019 03:00 PDT45P  7.2P  9.8P  3,790P  0.8P  2.32P  11.0P  5.69P  
06/11/2019 03:15 PDT      9.7P  3,810P     2.33P        
06/11/2019 03:30 PDT      9.7P  3,790P     2.32P        
06/11/2019 03:45 PDT      9.6P  3,810P     2.33P        
06/11/2019 04:00 PDT45P  7.2P  9.7P  3,790P  0.7P  2.32P  11.0P  5.42P  
06/11/2019 04:15 PDT      9.7P  3,810P     2.33P        
06/11/2019 04:30 PDT      9.7P  3,790P     2.32P        
06/11/2019 04:45 PDT      9.7P  3,790P     2.32P        
06/11/2019 05:00 PDT45P  7.2P  9.8P  3,810P  0.7P  2.33P  11.0P  5.18P  
06/11/2019 05:15 PDT      9.8P  3,790P     2.32P        
06/11/2019 05:30 PDT      9.8P  3,790P     2.32P        
06/11/2019 05:45 PDT      9.8P  3,830P     2.34P        
06/11/2019 06:00 PDT45P  7.2P  9.8P  3,790P  0.7P  2.32P  11.0P  5.13P  
06/11/2019 06:15 PDT      9.8P  3,790P     2.32P        
06/11/2019 06:30 PDT      9.8P  3,790P     2.32P        
06/11/2019 06:45 PDT      9.8P  3,790P     2.32P        
06/11/2019 07:00 PDT45P  7.2P  9.8P  3,770P  0.8P  2.31P  11.0P  5.09P  
06/11/2019 07:15 PDT      9.8P  3,830P     2.34P        
06/11/2019 07:30 PDT      9.8P  3,830P     2.34P        
06/11/2019 07:45 PDT      9.8P  3,830P     2.34P        
06/11/2019 08:00 PDT45P  7.3P  9.8P  3,790P  0.8P  2.32P  11.0P  4.98P  
06/11/2019 08:15 PDT      9.8P  3,810P     2.33P        
06/11/2019 08:30 PDT      9.8P  3,790P     2.32P        
06/11/2019 08:45 PDT      9.8P  3,790P     2.32P        
06/11/2019 09:00 PDT45P  7.3P  9.9P  3,790P  0.7P  2.32P  11.1P  4.82P  
06/11/2019 09:15 PDT      10.0P  3,750P     2.30P        
06/11/2019 09:30 PDT      10.0P  3,750P     2.30P        
06/11/2019 09:45 PDT      10.1P  3,730P     2.29P        
06/11/2019 10:00 PDT45P  7.3P  10.2P  3,710P  0.7P  2.28P  11.1P  4.63P  
06/11/2019 10:15 PDT      10.3P  3,690P     2.27P        
06/11/2019 10:30 PDT      10.5P  3,670P     2.26P        
06/11/2019 10:45 PDT      10.6P  3,650P     2.25P        
06/11/2019 11:00 PDT45P  7.4P  10.7P  3,630P  0.7P  2.24P  11.1P  4.41P  
06/11/2019 11:15 PDT      10.8P  3,630P     2.24P        
06/11/2019 11:30 PDT      11.0P  3,590P     2.22P        
06/11/2019 11:45 PDT      11.1P  3,610P     2.23P        
06/11/2019 12:00 PDT45P  7.4P  11.2P  3,570P  0.8P  2.21P  11.1P  4.20P  
06/11/2019 12:15 PDT      11.4P  3,530P     2.19P        
06/11/2019 12:30 PDT      11.5P  3,530P     2.19P        
06/11/2019 12:45 PDT      11.6P  3,510P     2.18P        
06/11/2019 13:00 PDT45P  7.4P  11.8P  3,490P  0.7P  2.17P  11.0P  4.04P  
06/11/2019 13:15 PDT      11.9P  3,490P     2.17P        
06/11/2019 13:30 PDT      12.1P  3,490P     2.17P        
06/11/2019 13:45 PDT      12.2P  3,470P     2.16P        
06/11/2019 14:00 PDT45P  7.5P  12.4P  3,510P  0.8P  2.18P  10.9P  3.92P  
06/11/2019 14:15 PDT      12.5P  3,470P     2.16P        
06/11/2019 14:30 PDT      12.7P  3,450P     2.15P        
06/11/2019 14:45 PDT      12.8P  3,490P     2.17P        
06/11/2019 15:00 PDT46P  7.6P  12.9P  3,450P  0.7P  2.15P  10.8P  3.82P  
06/11/2019 15:15 PDT      13.0P  3,450P     2.15P        
06/11/2019 15:30 PDT      13.2P  3,450P     2.15P        
06/11/2019 15:45 PDT      13.3P  3,410P     2.13P        
06/11/2019 16:00 PDT46P  7.6P  13.4P  3,430P  0.7P  2.14P  10.7P  3.76P  
06/11/2019 16:15 PDT      13.4P  3,490P     2.17P        
06/11/2019 16:30 PDT      13.5P  3,430P     2.14P        
06/11/2019 16:45 PDT      13.6P  3,410P     2.13P        
06/11/2019 17:00 PDT46P  7.6P  13.6P  3,430P  0.8P  2.14P  10.6P  3.79P  
06/11/2019 17:15 PDT      13.6P  3,410P     2.13P        
06/11/2019 17:30 PDT      13.6P  3,410P     2.13P        
06/11/2019 17:45 PDT      13.6P  3,410P     2.13P        
06/11/2019 18:00 PDT46P  7.6P  13.6P  3,410P  0.7P  2.13P  10.5P  3.91P  
06/11/2019 18:15 PDT      13.5P  3,410P     2.13P        
06/11/2019 18:30 PDT      13.4P  3,390P     2.12P        
06/11/2019 18:45 PDT      13.4P  3,410P     2.13P        
06/11/2019 19:00 PDT46P  7.5P  13.3P  3,430P  0.7P  2.14P  10.4P  4.05P  
06/11/2019 19:15 PDT      13.2P  3,430P     2.14P        
06/11/2019 19:30 PDT      13.2P  3,410P     2.13P        
06/11/2019 19:45 PDT      13.1P  3,410P     2.13P        
06/11/2019 20:00 PDT46P  7.4P  13.0P  3,410P  0.7P  2.13P  10.4P  4.23P  
06/11/2019 20:15 PDT      13.0P  3,410P     2.13P        
06/11/2019 20:30 PDT      12.9P  3,430P     2.14P        
06/11/2019 20:45 PDT      12.8P  3,410P     2.13P        
06/11/2019 21:00 PDT46P  7.3P  12.7P  3,410P  0.7P  2.13P  10.4P  4.43P  
06/11/2019 21:15 PDT      12.6P  3,410P     2.13P        
06/11/2019 21:30 PDT      12.6P  3,390P     2.12P        
06/11/2019 21:45 PDT      12.5P  3,430P     2.14P        
06/11/2019 22:00 PDT46P  7.3P  12.4P  3,390P  0.7P  2.12P  10.3P  4.56P  
06/11/2019 22:15 PDT      12.3P  3,410P     2.13P        
06/11/2019 22:30 PDT      12.2P  3,410P     2.13P        
06/11/2019 22:45 PDT      12.1P  3,430P     2.14P        
06/11/2019 23:00 PDT46P  7.2P  12.0P  3,390P  0.7P  2.12P  10.4P  4.75P  
06/11/2019 23:15 PDT      12.0P  3,410P     2.13P        
06/11/2019 23:30 PDT      11.9P  3,390P     2.12P        
06/11/2019 23:45 PDT      11.8P  3,390P     2.12P        
06/12/2019 00:00 PDT46P  7.2P  11.8P  3,390P  0.8P  2.12P  10.4P  4.90P  
06/12/2019 00:15 PDT      11.7P  3,410P     2.13P        
06/12/2019 00:30 PDT      11.6P  3,390P     2.12P        
06/12/2019 00:45 PDT      11.6P  3,390P     2.12P        
06/12/2019 01:00 PDT46P  7.2P  11.5P  3,390P  0.8P  2.12P  10.5P  5.00P  
06/12/2019 01:15 PDT      11.4P  3,390P     2.12P        
06/12/2019 01:30 PDT      11.3P  3,410P     2.13P        
06/12/2019 01:45 PDT      11.2P  3,370P     2.11P        
06/12/2019 02:00 PDT46P  7.2P  11.2P  3,390P  0.8P  2.12P  10.6P  5.10P  
06/12/2019 02:15 PDT      11.1P  3,390P     2.12P        
06/12/2019 02:30 PDT      11.0P  3,390P     2.12P        
06/12/2019 02:45 PDT      10.9P  3,410P     2.13P        
06/12/2019 03:00 PDT46P  7.2P  10.8P  3,410P  0.7P  2.13P  10.6P  5.22P  
06/12/2019 03:15 PDT      10.7P  3,410P     2.13P        
06/12/2019 03:30 PDT      10.6P  3,390P     2.12P        
06/12/2019 03:45 PDT      10.6P  3,390P     2.12P        
06/12/2019 04:00 PDT46P  7.2P  10.5P  3,410P  0.7P  2.13P  10.7P  5.19P  
06/12/2019 04:15 PDT      10.4P  3,410P     2.13P        
06/12/2019 04:30 PDT      10.4P  3,390P     2.12P        
06/12/2019 04:45 PDT      10.4P  3,410P     2.13P        
06/12/2019 05:00 PDT46P  7.2P  10.4P  3,390P  0.8P  2.12P  10.7P  5.07P  
06/12/2019 05:15 PDT      10.3P  3,430P     2.14P        
06/12/2019 05:30 PDT      10.3P  3,390P     2.12P        
06/12/2019 05:45 PDT      10.3P  3,410P     2.13P        
06/12/2019 06:00 PDT46P  7.2P  10.3P  3,390P  0.9P  2.12P  10.8P  4.97P  
06/12/2019 06:15 PDT      10.3P  3,410P     2.13P        
06/12/2019 06:30 PDT      10.3P  3,390P     2.12P        
06/12/2019 06:45 PDT      10.3P  3,390P     2.12P        
06/12/2019 07:00 PDT46P  7.2P  10.3P  3,390P  0.8P  2.12P  10.8P  4.86P  
06/12/2019 07:15 PDT      10.3P  3,390P     2.12P        
06/12/2019 07:30 PDT      10.3P  3,390P     2.12P        
06/12/2019 07:45 PDT      10.3P  3,410P     2.13P        
06/12/2019 08:00 PDT46P  7.2P  10.3P  3,370P  0.8P  2.11P  10.9P  4.73P  
06/12/2019 08:15 PDT      10.3P  3,390P     2.12P        
06/12/2019 08:30 PDT      10.3P  3,370P     2.11P        
06/12/2019 08:45 PDT      10.3P  3,390P     2.12P        
06/12/2019 09:00 PDT46P  7.2P  10.4P  3,410P  0.8P  2.13P  10.9P  4.62P  
06/12/2019 09:15 PDT      10.4P  3,410P     2.13P        
06/12/2019 09:30 PDT      10.5P  3,390P     2.12P        
06/12/2019 09:45 PDT      10.6P  3,370P     2.11P        
06/12/2019 10:00 PDT46P  7.3P  10.6P  3,350P  0.7P  2.10P  11.0P  4.42P  
06/12/2019 10:15 PDT      10.8P  3,330P     2.09P        
06/12/2019 10:30 PDT      10.9P  3,310P     2.08P        
06/12/2019 10:45 PDT      11.0P  3,330P     2.09P        
06/12/2019 11:00 PDT46P  7.4P  11.1P  3,290P  0.7P  2.07P  11.0P  4.19P  
06/12/2019 11:15 PDT      11.3P  3,270P     2.06P        
06/12/2019 11:30 PDT      11.4P  3,270P     2.06P        
06/12/2019 11:45 PDT      11.6P  3,270P     2.06P        
06/12/2019 12:00 PDT46P  7.4P  11.7P  3,270P  0.7P  2.06P  10.9P  4.03P  
06/12/2019 12:15 PDT      11.9P  3,260P     2.05P        
06/12/2019 12:30 PDT      12.1P  3,240P     2.04P        
06/12/2019 12:45 PDT      12.2P  3,240P     2.04P        
06/12/2019 13:00 PDT46P  7.5P  12.3P  3,200P  0.7P  2.02P  10.9P  3.84P  
06/12/2019 13:15 PDT      12.5P  3,200P     2.02P        
06/12/2019 13:30 PDT      12.6P  3,180P     2.01P        
06/12/2019 13:45 PDT      12.7P  3,180P     2.01P        
06/12/2019 14:00 PDT46P  7.6P  12.8P  3,160P  0.7P  2.00P  10.8P  3.74P  
06/12/2019 14:15 PDT      13.0P  3,160P     2.00P        
06/12/2019 14:30 PDT      13.1P  3,160P     2.00P        
06/12/2019 14:45 PDT      13.2P  3,160P     2.00P        
06/12/2019 15:00 PDT46P  7.6P  13.4P  3,120P  0.7P  1.98P  10.7P  3.68P  
06/12/2019 15:15 PDT      13.5P  3,120P     1.98P        
06/12/2019 15:30 PDT      13.6P  3,140P     1.99P        
06/12/2019 15:45 PDT      13.7P  3,160P     2.00P        
06/12/2019 16:00 PDT46P  7.6P  13.7P  3,160P  0.7P  2.00P  10.6P  3.62P  
06/12/2019 16:15 PDT      13.8P  3,160P     2.00P        
06/12/2019 16:30 PDT      13.8P  3,140P     1.99P        
06/12/2019 16:45 PDT      13.9P  3,140P     1.99P        
06/12/2019 17:00 PDT46P  7.6P  13.9P  3,100P  0.7P  1.97P  10.5P  3.63P  
06/12/2019 17:15 PDT      13.9P  3,120P     1.98P        
06/12/2019 17:30 PDT      13.9P  3,120P     1.98P        
06/12/2019 17:45 PDT      13.9P  3,100P     1.97P        
06/12/2019 18:00 PDT46P  7.6P  13.9P  3,090P  0.8P  1.96P  10.4P  3.72P  
06/12/2019 18:15 PDT      13.8P  3,140P     1.99P        
06/12/2019 18:30 PDT      13.8P  3,090P     1.96P        
06/12/2019 18:45 PDT      13.7P  3,100P     1.97P        
06/12/2019 19:00 PDT46P  7.5P  13.7P  3,100P  0.7P  1.97P  10.3P  3.84P  
06/12/2019 19:15 PDT      13.6P  3,100P     1.97P        
06/12/2019 19:30 PDT      13.6P  3,090P     1.96P        
06/12/2019 19:45 PDT      13.5P  3,100P     1.97P        
06/12/2019 20:00 PDT46P  7.4P  13.4P  3,100P  0.7P  1.97P  10.3P  4.06P  
06/12/2019 20:15 PDT      13.3P  3,120P     1.98P        
06/12/2019 20:30 PDT      13.2P  3,100P     1.97P        
06/12/2019 20:45 PDT      13.2P  3,100P     1.97P        
06/12/2019 21:00 PDT46P  7.4P  13.1P  3,090P  0.7P  1.96P  10.2P  4.23P  
06/12/2019 21:15 PDT      13.0P  3,100P     1.97P        
06/12/2019 21:30 PDT      12.9P  3,090P     1.96P        
06/12/2019 21:45 PDT      12.8P  3,100P     1.97P        
06/12/2019 22:00 PDT46P  7.3P  12.8P  3,090P  0.7P  1.96P  10.2P  4.35P  
06/12/2019 22:15 PDT      12.7P  3,100P     1.97P        
06/12/2019 22:30 PDT      12.6P  3,090P     1.96P        
06/12/2019 22:45 PDT      12.5P  3,100P     1.97P        
06/12/2019 23:00 PDT47P  7.3P  12.5P  3,090P  0.6P  1.96P  10.3P  4.55P  
06/12/2019 23:15 PDT      12.4P  3,100P     1.97P        
06/12/2019 23:30 PDT      12.3P  3,100P     1.97P        
06/12/2019 23:45 PDT      12.2P  3,100P     1.97P        
06/13/2019 00:00 PDT47P  7.2P  12.1P  3,090P  0.7P  1.96P  10.3P  4.69P  
06/13/2019 00:15 PDT      12.0P  3,090P     1.96P        
06/13/2019 00:30 PDT      11.9P  3,120P     1.98P        
06/13/2019 00:45 PDT      11.8P  3,100P     1.97P        
06/13/2019 01:00 PDT47P  7.2P  11.7P  3,100P  0.7P  1.97P  10.4P  4.76P  
06/13/2019 01:15 PDT      11.6P  3,090P     1.96P        
06/13/2019 01:30 PDT      11.5P  3,100P     1.97P        
06/13/2019 01:45 PDT      11.4P  3,120P     1.98P        
06/13/2019 02:00 PDT47P  7.2P  11.3P  3,120P  0.7P  1.98P  10.5P  4.81P  
06/13/2019 02:15 PDT      11.2P  3,100P     1.97P        
06/13/2019 02:30 PDT      11.1P  3,100P     1.97P        
06/13/2019 02:45 PDT      11.0P  3,100P     1.97P        
06/13/2019 03:00 PDT47P  7.2P  10.9P  3,100P  0.8P  1.97P  10.6P  4.89P  
06/13/2019 03:15 PDT      10.8P  3,100P     1.97P        
06/13/2019 03:30 PDT      10.7P  3,100P     1.97P        
06/13/2019 03:45 PDT      10.6P  3,120P     1.98P        
06/13/2019 04:00 PDT47P  7.2P  10.5P  3,120P  0.7P  1.98P  10.7P  4.92P  
06/13/2019 04:15 PDT      10.4P  3,120P     1.98P        
06/13/2019 04:30 PDT      10.4P  3,120P     1.98P        
06/13/2019 04:45 PDT      10.3P  3,100P     1.97P        
06/13/2019 05:00 PDT47P  7.2P  10.3P  3,100P  0.8P  1.97P  10.7P  4.91P  
06/13/2019 05:15 PDT      10.2P  3,120P     1.98P        
06/13/2019 05:30 PDT      10.2P  3,100P     1.97P        
06/13/2019 05:45 PDT      10.2P  3,100P     1.97P        
06/13/2019 06:00 PDT47P  7.2P  10.2P  3,090P  0.7P  1.96P  10.8P  4.84P  
06/13/2019 06:15 PDT      10.2P  3,100P     1.97P        
06/13/2019 06:30 PDT      10.2P  3,090P     1.96P        
06/13/2019 06:45 PDT      10.2P  3,100P     1.97P        
06/13/2019 07:00 PDT47P  7.2P  10.1P  3,100P  0.7P  1.97P  10.8P  4.73P  
06/13/2019 07:15 PDT      10.1P  3,090P     1.96P        
06/13/2019 07:30 PDT      10.1P  3,100P     1.97P        
06/13/2019 07:45 PDT      10.1P  3,100P     1.97P        
06/13/2019 08:00 PDT47P  7.3P  10.1P  3,100P  0.7P  1.97P  10.9P  4.60P  
06/13/2019 08:15 PDT      10.1P  3,090P     1.96P        
06/13/2019 08:30 PDT      10.1P  3,100P     1.97P        
06/13/2019 08:45 PDT      10.2P  3,100P     1.97P        
06/13/2019 09:00 PDT47P  7.3P  10.2P  3,090P  0.7P  1.96P  11.0P  4.44P  
06/13/2019 09:15 PDT      10.3P  3,120P     1.98P        
06/13/2019 09:30 PDT      10.3P  3,090P     1.96P        
06/13/2019 09:45 PDT      10.4P  3,100P     1.97P        
06/13/2019 10:00 PDT47P  7.3P  10.5P  3,070P  0.7P  1.95P  11.0P  4.23P  
06/13/2019 10:15 PDT      10.6P  3,090P     1.96P        
06/13/2019 10:30 PDT      10.7P  3,050P     1.94P        
06/13/2019 10:45 PDT      10.9P  3,050P     1.94P        
06/13/2019 11:00 PDT47P  7.4P  11.0P  3,030P  0.7P  1.93P  11.0P  3.99P  
06/13/2019 11:15 PDT      11.2P  3,030P     1.93P        
06/13/2019 11:30 PDT      11.3P  3,050P     1.94P        
06/13/2019 11:45 PDT      11.5P  3,010P     1.92P        
06/13/2019 12:00 PDT47P  7.4P  11.6P  3,010P  0.7P  1.92P  11.0P  3.84P  
06/13/2019 12:15 PDT      11.8P  2,990P     1.91P        
06/13/2019 12:30 PDT      12.0P  2,970P     1.90P        
06/13/2019 12:45 PDT      12.1P  2,990P     1.91P        
06/13/2019 13:00 PDT47P  7.5P  12.3P  2,960P  0.7P  1.89P  10.9P  3.68P  
06/13/2019 13:15 PDT      12.4P  2,960P     1.89P        
06/13/2019 13:30 PDT      12.6P  2,900P     1.86P        
06/13/2019 13:45 PDT      12.8P  2,860P     1.84P        
06/13/2019 14:00 PDT47P  7.5P  12.9P  2,850P  0.6P  1.83P  10.8P  3.54P  
06/13/2019 14:15 PDT      13.0P  2,850P     1.83P        
06/13/2019 14:30 PDT      13.2P  2,830P     1.82P        
06/13/2019 14:45 PDT      13.3P  2,770P     1.79P        
06/13/2019 15:00 PDT47P  7.6P  13.5P  2,760P  0.7P  1.78P  10.7P  3.46P  
06/13/2019 15:15 PDT      13.6P  2,740P     1.77P        
06/13/2019 15:30 PDT      13.7P  2,740P     1.77P        
06/13/2019 15:45 PDT      13.8P  2,720P     1.76P        
06/13/2019 16:00 PDT48P  7.7P  14.0P  2,700P  0.7P  1.75P  10.5P  3.37P  
06/13/2019 16:15 PDT      14.0P  2,700P     1.75P        
06/13/2019 16:30 PDT      14.2P  2,720P     1.76P        
06/13/2019 16:45 PDT      14.2P  2,700P     1.75P        
06/13/2019 17:00 PDT48P  7.7P  14.3P  2,720P  0.6P  1.76P  10.4P  3.35P  
06/13/2019 17:15 PDT      14.4P  2,700P     1.75P        
06/13/2019 17:30 PDT      14.4P  2,700P     1.75P        
06/13/2019 17:45 PDT      14.4P  2,700P     1.75P        
06/13/2019 18:00 PDT48P  7.6P  14.4P  2,680P  0.6P  1.74P  10.3P  3.36P  
06/13/2019 18:15 PDT      14.3P  2,700P     1.75P        
06/13/2019 18:30 PDT      14.3P  2,700P     1.75P        
06/13/2019 18:45 PDT      14.3P  2,700P     1.75P        
06/13/2019 19:00 PDT48P  7.6P  14.2P  2,700P  0.6P  1.75P  10.2P  3.47P  
06/13/2019 19:15 PDT      14.1P  2,680P     1.74P        
06/13/2019 19:30 PDT      14.0P  2,680P     1.74P        
06/13/2019 19:45 PDT      14.0P  2,680P     1.74P        
06/13/2019 20:00 PDT48P  7.5P  13.9P  2,680P  0.7P  1.74P  10.2P  3.61P  
06/13/2019 20:15 PDT      13.8P  2,670P     1.73P        
06/13/2019 20:30 PDT      13.8P  2,680P     1.74P        
06/13/2019 20:45 PDT      13.7P  2,680P     1.74P        
06/13/2019 21:00 PDT48P  7.4P  13.6P  2,670P  0.7P  1.73P  10.1P  3.78P  
06/13/2019 21:15 PDT      13.5P  2,680P     1.74P        
06/13/2019 21:30 PDT      13.4P  2,680P     1.74P        
06/13/2019 21:45 PDT      13.3P  2,670P     1.73P        
06/13/2019 22:00 PDT48P  7.4P  13.2P  2,680P  0.6P  1.74P  10.1P  3.95P  
06/13/2019 22:15 PDT      13.1P  2,680P     1.74P        
06/13/2019 22:30 PDT      13.0P  2,680P     1.74P        
06/13/2019 22:45 PDT      13.0P  2,680P     1.74P        
06/13/2019 23:00 PDT49P  7.3P  12.9P  2,680P  0.6P  1.74P  10.2P  4.12P  
06/13/2019 23:15 PDT      12.8P  2,670P     1.73P        
06/13/2019 23:30 PDT      12.7P  2,680P     1.74P        
06/13/2019 23:45 PDT      12.6P  2,680P     1.74P        
06/14/2019 00:00 PDT49P  7.3P  12.5P  2,680P  0.7P  1.74P  10.2P  4.22P  
06/14/2019 00:15 PDT      12.4P  2,680P     1.74P        
06/14/2019 00:30 PDT      12.2P  2,680P     1.74P        
06/14/2019 00:45 PDT      12.1P  2,670P     1.73P        
06/14/2019 01:00 PDT49P  7.2P  12.0P  2,680P  0.6P  1.74P  10.3P  4.30P  
06/14/2019 01:15 PDT      11.9P  2,680P     1.74P        
06/14/2019 01:30 PDT      11.8P  2,700P     1.75P        
06/14/2019 01:45 PDT      11.7P  2,700P     1.75P        
06/14/2019 02:00 PDT49P  7.2P  11.6P  2,680P  0.7P  1.74P  10.4P  4.35P  
06/14/2019 02:15 PDT      11.4P  2,700P     1.75P        
06/14/2019 02:30 PDT      11.3P  2,700P     1.75P        
06/14/2019 02:45 PDT      11.2P  2,700P     1.75P        
06/14/2019 03:00 PDT49P  7.3P  11.1P  2,700P  0.6P  1.75P  10.6P  4.38P  
06/14/2019 03:15 PDT      11.0P  2,680P     1.74P        
06/14/2019 03:30 PDT      10.8P  2,680P     1.74P        
06/14/2019 03:45 PDT      10.7P  2,700P     1.75P        
06/14/2019 04:00 PDT49P  7.2P  10.6P  2,700P  0.7P  1.75P  10.7P  4.41P  
06/14/2019 04:15 PDT      10.5P  2,680P     1.74P        
06/14/2019 04:30 PDT      10.4P  2,680P     1.74P        
06/14/2019 04:45 PDT      10.3P  2,700P     1.75P        
06/14/2019 05:00 PDT49P  7.2P  10.2P  2,700P  0.6P  1.75P  10.8P  4.42P  
06/14/2019 05:15 PDT      10.2P  2,700P     1.75P        
06/14/2019 05:30 PDT      10.1P  2,700P     1.75P        
06/14/2019 05:45 PDT      10.1P  2,680P     1.74P        
06/14/2019 06:00 PDT49P  7.3P  10.1P  2,700P  0.7P  1.75P  10.8P  4.38P  
06/14/2019 06:15 PDT      10.0P  2,700P     1.75P        
06/14/2019 06:30 PDT      10.0P  2,680P     1.74P        
06/14/2019 06:45 PDT      10.0P  2,700P     1.75P        
06/14/2019 07:00 PDT49P  7.3P  10.0P  2,700P  0.7P  1.75P  10.9P  4.35P  
06/14/2019 07:15 PDT      9.9P  2,700P     1.75P        
06/14/2019 07:30 PDT      9.9P  2,700P     1.75P        
06/14/2019 07:45 PDT      9.9P  2,680P     1.74P        
06/14/2019 08:00 PDT49P  7.3P  9.9P  2,720P  0.7P  1.76P  11.0P  4.23P  
06/14/2019 08:15 PDT      9.9P  2,700P     1.75P        
06/14/2019 08:30 PDT      9.9P  2,680P     1.74P        
06/14/2019 08:45 PDT      10.0P  2,700P     1.75P        
06/14/2019 09:00 PDT49P  7.3P  10.0P  2,680P  0.6P  1.74P  11.1P  4.08P  
06/14/2019 09:15 PDT      10.0P  2,680P     1.74P        
06/14/2019 09:30 PDT      10.1P  2,700P     1.75P        
06/14/2019 09:45 PDT      10.2P  2,680P     1.74P        
06/14/2019 10:00 PDT49P  7.4P  10.3P  2,650P  0.6P  1.72P  11.1P  3.84P  
06/14/2019 10:15 PDT      10.4P  2,610P     1.70P        
06/14/2019 10:30 PDT      10.5P  2,580P     1.68P        
06/14/2019 10:45 PDT      10.7P  2,600P     1.69P        
06/14/2019 11:00 PDT49P  7.5P  10.8P  2,560P  0.6P  1.67P  11.1P  3.64P  
06/14/2019 11:15 PDT      11.0P  2,510P     1.64P        
06/14/2019 11:30 PDT      11.1P  2,490P     1.63P        
06/14/2019 11:45 PDT      11.3P  2,460P     1.61P        
06/14/2019 12:00 PDT49P  7.5P  11.5P  2,480P  0.6P  1.62P  11.0P  3.40P  
06/14/2019 12:15 PDT      11.7P  2,480P     1.62P        
06/14/2019 12:30 PDT      11.9P  2,460P     1.61P        
06/14/2019 12:45 PDT      12.1P  2,480P     1.62P        
06/14/2019 13:00 PDT50P  7.5P  12.3P  2,460P  0.6P  1.61P  10.9P  3.17P  
06/14/2019 13:15 PDT      12.5P  2,460P     1.61P        
06/14/2019 13:30 PDT      12.6P  2,460P     1.61P        
06/14/2019 13:45 PDT      12.8P  2,480P     1.62P        
06/14/2019 14:00 PDT50P  7.6P  13.0P  2,480P  0.5P  1.62P  10.7P  3.03P  
06/14/2019 14:15 PDT      13.2P  2,460P     1.61P        
06/14/2019 14:30 PDT      13.3P  2,460P     1.61P        
06/14/2019 14:45 PDT      13.4P  2,460P     1.61P        
06/14/2019 15:00 PDT50P  7.7P  13.6P  2,460P  0.6P  1.61P  10.6P  2.93P  
06/14/2019 15:15 PDT      13.7P  2,460P     1.61P        
06/14/2019 15:30 PDT      13.8P  2,460P     1.61P        
06/14/2019 15:45 PDT      13.9P  2,460P     1.61P        
06/14/2019 16:00 PDT50P  7.7P  14.0P  2,460P  0.5P  1.61P  10.5P  2.92P  
06/14/2019 16:15 PDT      14.1P  2,460P     1.61P        
06/14/2019 16:30 PDT      14.2P  2,460P     1.61P        
06/14/2019 16:45 PDT      14.2P  2,460P     1.61P        
06/14/2019 17:00 PDT50P  7.7P  14.3P  2,440P  0.5P  1.60P  10.4P  2.96P  
06/14/2019 17:15 PDT      14.3P  2,440P     1.60P        
06/14/2019 17:30 PDT      14.3P  2,460P     1.61P        
06/14/2019 17:45 PDT      14.3P  2,440P     1.60P        
06/14/2019 18:00 PDT50P  7.7P  14.3P  2,440P  0.5P  1.60P  10.3P  3.04P  
06/14/2019 18:15 PDT      14.3P  2,440P     1.60P        
06/14/2019 18:30 PDT      14.2P  2,440P     1.60P        
06/14/2019 18:45 PDT      14.2P  2,440P     1.60P        
06/14/2019 19:00 PDT50P  7.6P  14.1P  2,420P  0.5P  1.59P  10.2P  3.10P  
06/14/2019 19:15 PDT      14.0P  2,420P     1.59P        
06/14/2019 19:30 PDT      14.0P  2,440P     1.60P        
06/14/2019 19:45 PDT      13.9P  2,440P     1.60P        
06/14/2019 20:00 PDT50P  7.6P  13.8P  2,420P  0.5P  1.59P  10.2P  3.21P  
06/14/2019 20:15 PDT      13.8P  2,440P     1.60P        
06/14/2019 20:30 PDT      13.7P  2,440P     1.60P        
06/14/2019 20:45 PDT      13.6P  2,440P     1.60P        
06/14/2019 21:00 PDT50P  7.4P  13.5P  2,440P  0.6P  1.60P  10.1P  3.36P  
06/14/2019 21:15 PDT      13.4P  2,420P     1.59P        
06/14/2019 21:30 PDT      13.4P  2,420P     1.59P        
06/14/2019 21:45 PDT      13.3P  2,420P     1.59P        
06/14/2019 22:00 PDT50P  7.4P  13.2P  2,420P  0.5P  1.59P  10.1P  3.54P  
06/14/2019 22:15 PDT      13.1P  2,420P     1.59P        
06/14/2019 22:30 PDT      13.0P  2,420P     1.59P        
06/14/2019 22:45 PDT      12.9P  2,420P     1.59P        
06/14/2019 23:00 PDT50P  7.3P  12.8P  2,420P  0.6P  1.59P  10.2P  3.66P  
06/14/2019 23:15 PDT      12.7P  2,420P     1.59P        
06/14/2019 23:30 PDT      12.6P  2,410P     1.58P        
06/14/2019 23:45 PDT      12.5P  2,420P     1.59P        
06/15/2019 00:00 PDT50P  7.4P  12.4P  2,420P  0.6P  1.59P  10.2P  3.79P  
06/15/2019 00:15 PDT      12.3P  2,420P     1.59P        
06/15/2019 00:30 PDT      12.2P  2,420P     1.59P        
06/15/2019 00:45 PDT      12.1P  2,440P     1.60P        
06/15/2019 01:00 PDT50P  7.3P  12.0P  2,440P  0.6P  1.60P  10.3P  3.87P  
06/15/2019 01:15 PDT      11.8P  2,420P     1.59P        
06/15/2019 01:30 PDT      11.7P  2,420P     1.59P        
06/15/2019 01:45 PDT      11.6P  2,420P     1.59P        
06/15/2019 02:00 PDT50P  7.3P  11.5P  2,420P  0.6P  1.59P  10.4P  3.92P  
06/15/2019 02:15 PDT      11.4P  2,440P     1.60P        
06/15/2019 02:30 PDT      11.3P  2,440P     1.60P        
06/15/2019 02:45 PDT      11.2P  2,440P     1.60P        
06/15/2019 03:00 PDT50P  7.3P  11.0P  2,420P  0.6P  1.59P  10.6P  3.92P  
06/15/2019 03:15 PDT      10.9P  2,440P     1.60P        
06/15/2019 03:30 PDT      10.8P  2,440P     1.60P        
06/15/2019 03:45 PDT      10.7P  2,440P     1.60P        
06/15/2019 04:00 PDT50P  7.3P  10.6P  2,440P  0.6P  1.60P  10.7P  3.97P  
06/15/2019 04:15 PDT      10.5P  2,440P     1.60P        
06/15/2019 04:30 PDT      10.4P  2,440P     1.60P        
06/15/2019 04:45 PDT      10.3P  2,420P     1.59P        
06/15/2019 05:00 PDT50P  7.3P  10.2P  2,420P  0.6P  1.59P  10.8P  3.99P  
06/15/2019 05:15 PDT      10.1P  2,420P     1.59P        
06/15/2019 05:30 PDT      10.1P  2,440P     1.60P        
06/15/2019 05:45 PDT      10.0P  2,420P     1.59P        
06/15/2019 06:00 PDT50P  7.3P  10.0P  2,420P  0.6P  1.59P  10.8P  3.99P  
06/15/2019 06:15 PDT      9.9P  2,420P     1.59P        
06/15/2019 06:30 PDT      9.9P  2,420P     1.59P        
06/15/2019 06:45 PDT      9.8P  2,440P     1.60P        
06/15/2019 07:00 PDT50P  7.3P  9.8P  2,440P  0.6P  1.60P  10.9P  3.94P  
06/15/2019 07:15 PDT      9.8P  2,460P     1.61P        
06/15/2019 07:30 PDT      9.7P  2,440P     1.60P        
06/15/2019 07:45 PDT      9.7P  2,420P     1.59P        
06/15/2019 08:00 PDT50P  7.4P  9.7P  2,420P  0.6P  1.59P  11.0P  3.86P  
06/15/2019 08:15 PDT      9.7P  2,410P     1.58P        
06/15/2019 08:30 PDT      9.7P  2,390P     1.57P        
06/15/2019 08:45 PDT      9.8P  2,370P     1.56P        
06/15/2019 09:00 PDT50P  7.4P  9.8P  2,390P  0.6P  1.57P  11.1P  3.68P  
06/15/2019 09:15 PDT      9.8P  2,360P     1.55P        
06/15/2019 09:30 PDT      9.9P  2,340P     1.54P        
06/15/2019 09:45 PDT      10.0P  2,310P     1.52P        
06/15/2019 10:00 PDT50P  7.4P  10.1P  2,310P  0.5P  1.52P  11.1P  3.48P  
06/15/2019 10:15 PDT      10.2P  2,290P     1.51P        
06/15/2019 10:30 PDT      10.3P  2,290P     1.51P        
06/15/2019 10:45 PDT      10.5P  2,270P     1.50P        
06/15/2019 11:00 PDT51P  7.5P  10.6P  2,270P  0.6P  1.50P  11.1P  3.28P  
06/15/2019 11:15 PDT      10.8P  2,270P     1.50P        
06/15/2019 11:30 PDT      10.9P  2,270P     1.50P        
06/15/2019 11:45 PDT      11.1P  2,290P     1.51P        
06/15/2019 12:00 PDT51P  7.6P  11.3P  2,290P  0.6P  1.51P  11.1P  3.05P  
06/15/2019 12:15 PDT      11.4P  2,270P     1.50P        
06/15/2019 12:30 PDT      11.6P  2,290P     1.51P        
06/15/2019 12:45 PDT      11.8P  2,260P     1.49P        
06/15/2019 13:00 PDT51P  7.6P  12.0P  2,270P  0.5P  1.50P  10.9P  2.95P  
06/15/2019 13:15 PDT      12.2P  2,270P     1.50P        
06/15/2019 13:30 PDT      12.4P  2,270P     1.50P        
06/15/2019 13:45 PDT      12.6P  2,270P     1.50P        
06/15/2019 14:00 PDT51P  7.7P  12.8P  2,270P  0.5P  1.50P  10.8P  2.79P  
06/15/2019 14:15 PDT      13.0P  2,290P     1.51P        
06/15/2019 14:30 PDT      13.1P  2,270P     1.50P        
06/15/2019 14:45 PDT      13.3P  2,270P     1.50P        
06/15/2019 15:00 PDT52P  7.7P  13.4P  2,270P  0.6P  1.50P  10.7P  2.74P  
06/15/2019 15:15 PDT      13.6P  2,270P     1.50P        
06/15/2019 15:30 PDT      13.7P  2,290P     1.51P        
06/15/2019 15:45 PDT      13.8P  2,270P     1.50P        
06/15/2019 16:00 PDT51P  7.7P  14.0P  2,270P  0.5P  1.50P  10.5P  2.71P  
06/15/2019 16:15 PDT      14.1P  2,270P     1.50P        
06/15/2019 16:30 PDT      14.1P  2,270P     1.50P        
06/15/2019 16:45 PDT      14.2P  2,270P     1.50P        
06/15/2019 17:00 PDT51P  7.7P  14.3P  2,270P  0.5P  1.50P  10.4P  2.71P  
06/15/2019 17:15 PDT      14.3P  2,260P     1.49P        
06/15/2019 17:30 PDT      14.4P  2,270P     1.50P        
06/15/2019 17:45 PDT      14.4P  2,260P     1.49P        
06/15/2019 18:00 PDT51P  7.7P  14.4P  2,260P  0.4P  1.49P  10.3P  2.80P  
06/15/2019 18:15 PDT      14.4P  2,260P     1.49P        
06/15/2019 18:30 PDT      14.4P  2,260P     1.49P        
06/15/2019 18:45 PDT      14.3P  2,260P     1.49P        
06/15/2019 19:00 PDT51P  7.7P  14.3P  2,260P  0.5P  1.49P  10.2P  2.85P  
06/15/2019 19:15 PDT      14.3P  2,240P     1.48P        
06/15/2019 19:30 PDT      14.2P  2,220P     1.47P        
06/15/2019 19:45 PDT      14.2P  2,260P     1.49P        
06/15/2019 20:00 PDT51P  7.6P  14.1P  2,260P  0.5P  1.49P  10.1P  2.90P  
06/15/2019 20:15 PDT      14.1P  2,240P     1.48P        
06/15/2019 20:30 PDT      14.0P  2,240P     1.48P        
06/15/2019 20:45 PDT      14.0P  2,240P     1.48P        
06/15/2019 21:00 PDT52P  7.5P  13.9P  2,240P  0.5P  1.48P  10.1P  3.06P  
06/15/2019 21:15 PDT      13.8P  2,260P     1.49P        
06/15/2019 21:30 PDT      13.7P  2,240P     1.48P        
06/15/2019 21:45 PDT      13.6P  2,240P     1.48P        
06/15/2019 22:00 PDT52P  7.4P  13.6P  2,240P  0.7P  1.48P  10.1P  3.18P  
06/15/2019 22:15 PDT      13.5P  2,240P     1.48P        
06/15/2019 22:30 PDT      13.4P  2,240P     1.48P        
06/15/2019 22:45 PDT      13.3P  2,240P     1.48P        
06/15/2019 23:00 PDT52P  7.4P  13.2P  2,240P  0.5P  1.48P  10.1P  3.34P  
06/15/2019 23:15 PDT      13.1P  2,240P     1.48P        
06/15/2019 23:30 PDT      13.0P  2,240P     1.48P        
06/15/2019 23:45 PDT      12.9P  2,240P     1.48P        
06/16/2019 00:00 PDT52P  7.4P  12.8P  2,240P  0.6P  1.48P  10.1P  3.46P  
06/16/2019 00:15 PDT      12.7P  2,240P     1.48P        
06/16/2019 00:30 PDT      12.6P  2,240P     1.48P        
06/16/2019 00:45 PDT      12.5P  2,240P     1.48P        
06/16/2019 01:00 PDT52P  7.3P  12.4P  2,240P  0.6P  1.48P  10.2P  3.55P  
06/16/2019 01:15 PDT      12.3P  2,240P     1.48P        
06/16/2019 01:30 PDT      12.2P  2,240P     1.48P        
06/16/2019 01:45 PDT      12.0P  2,240P     1.48P        
06/16/2019 02:00 PDT52P  7.3P  11.9P  2,240P  0.6P  1.48P  10.3P  3.65P  
06/16/2019 02:15 PDT      11.8P  2,260P     1.49P        
06/16/2019 02:30 PDT      11.7P  2,260P     1.49P        
06/16/2019 02:45 PDT      11.6P  2,260P     1.49P        
06/16/2019 03:00 PDT52P  7.3P  11.4P  2,240P  0.6P  1.48P  10.4P  3.66P  
06/16/2019 03:15 PDT      11.3P  2,260P     1.49P        
06/16/2019 03:30 PDT      11.2P  2,260P     1.49P        
06/16/2019 03:45 PDT      11.0P  2,240P     1.48P        
06/16/2019 04:00 PDT52P  7.3P  10.9P  2,260P  0.6P  1.49P  10.6P  3.79P  
06/16/2019 04:15 PDT      10.8P  2,240P     1.48P        
06/16/2019 04:30 PDT      10.7P  2,240P     1.48P        
06/16/2019 04:45 PDT      10.6P  2,260P     1.49P        
06/16/2019 05:00 PDT52P  7.3P  10.4P  2,270P  0.6P  1.50P  10.7P  3.79P  
06/16/2019 05:15 PDT      10.4P  2,260P     1.49P        
06/16/2019 05:30 PDT      10.3P  2,270P     1.50P        
06/16/2019 05:45 PDT      10.2P  2,270P     1.50P        
06/16/2019 06:00 PDT52P  7.3P  10.1P  2,270P  0.6P  1.50P  10.8P  3.75P  
06/16/2019 06:15 PDT      10.0P  2,270P     1.50P        
06/16/2019 06:30 PDT      10.0P  2,260P     1.49P        
06/16/2019 06:45 PDT      10.0P  2,260P     1.49P        
06/16/2019 07:00 PDT52P  7.3P  9.9P  2,270P  0.6P  1.50P  10.9P  3.64P  
06/16/2019 07:15 PDT      9.9P  2,270P     1.50P        
06/16/2019 07:30 PDT      9.9P  2,270P     1.50P        
06/16/2019 07:45 PDT      9.9P  2,260P     1.49P        
06/16/2019 08:00 PDT52P  7.4P  9.9P  2,260P  0.6P  1.49P  11.0P  3.55P  
06/16/2019 08:15 PDT      10.0P  2,260P     1.49P        
06/16/2019 08:30 PDT      10.0P  2,260P     1.49P        
06/16/2019 08:45 PDT      10.1P  2,260P     1.49P        
06/16/2019 09:00 PDT52P  7.4P  10.1P  2,260P  0.6P  1.49P  11.0P  3.39P  
06/16/2019 09:15 PDT      10.2P  2,260P     1.49P        
06/16/2019 09:30 PDT      10.3P  2,240P     1.48P        
06/16/2019 09:45 PDT      10.4P  2,260P     1.49P        
06/16/2019 10:00 PDT52P  7.4P  10.5P  2,240P  0.5P  1.48P  11.0P  3.20P  
06/16/2019 10:15 PDT      10.6P  2,260P     1.49P        
06/16/2019 10:30 PDT      10.7P  2,260P     1.49P        
06/16/2019 10:45 PDT      10.9P  2,260P     1.49P        
06/16/2019 11:00 PDT52P  7.5P  11.0P  2,260P  0.6P  1.49P  11.0P  3.01P  
06/16/2019 11:15 PDT      11.2P  2,260P     1.49P        
06/16/2019 11:30 PDT      11.3P  2,260P     1.49P        
06/16/2019 11:45 PDT      11.5P  2,260P     1.49P        
06/16/2019 12:00 PDT52P  7.6P  11.7P  2,260P  0.6P  1.49P  10.9P  2.89P  
06/16/2019 12:15 PDT      11.9P  2,260P     1.49P        
06/16/2019 12:30 PDT      12.1P  2,260P     1.49P        
06/16/2019 12:45 PDT      12.3P  2,260P     1.49P        
06/16/2019 13:00 PDT52P  7.6P  12.5P  2,260P  0.5P  1.49P  10.8P  2.79P  
06/16/2019 13:15 PDT      12.7P  2,260P     1.49P        
06/16/2019 13:30 PDT      12.9P  2,260P     1.49P        
06/16/2019 13:45 PDT      13.1P  2,260P     1.49P        
06/16/2019 14:00 PDT52P  7.7P  13.2P  2,260P  0.5P  1.49P  10.7P  2.70P  
06/16/2019 14:15 PDT      13.4P  2,260P     1.49P        
06/16/2019 14:30 PDT      13.6P  2,260P     1.49P        
06/16/2019 14:45 PDT      13.7P  2,260P     1.49P        
06/16/2019 15:00 PDT52P  7.7P  13.9P  2,260P  0.5P  1.49P  10.6P  2.68P  
06/16/2019 15:15 PDT      14.0P  2,240P     1.48P        
06/16/2019 15:30 PDT      14.2P  2,260P     1.49P        
06/16/2019 15:45 PDT      14.3P  2,240P     1.48P        
06/16/2019 16:00 PDT52P  7.7P  14.4P  2,240P  0.5P  1.48P  10.4P  2.68P  
06/16/2019 16:15 PDT      14.5P  2,260P     1.49P        
06/16/2019 16:30 PDT      14.6P  2,260P     1.49P        
06/16/2019 16:45 PDT      14.7P  2,240P     1.48P        
06/16/2019 17:00 PDT52P  7.7P  14.7P  2,240P  0.5P  1.48P  10.3P  2.69P  
06/16/2019 17:15 PDT      14.8P  2,240P     1.48P        
06/16/2019 17:30 PDT      14.8P  2,240P     1.48P        
06/16/2019 17:45 PDT      14.7P  2,260P     1.49P        
06/16/2019 18:00 PDT52P  7.7P  14.8P  2,240P  0.5P  1.48P  10.2P  2.75P  
06/16/2019 18:15 PDT      14.7P  2,240P     1.48P        
06/16/2019 18:30 PDT      14.7P  2,220P     1.47P        
06/16/2019 18:45 PDT      14.7P  2,220P     1.47P        
06/16/2019 19:00 PDT52P  7.7P  14.6P  2,220P  0.5P  1.47P  10.1P  2.86P  
06/16/2019 19:15 PDT      14.6P  2,240P     1.48P        
06/16/2019 19:30 PDT      14.6P  2,220P     1.47P        
06/16/2019 19:45 PDT      14.5P  2,240P     1.48P        
06/16/2019 20:00 PDT52P  7.6P  14.4P  2,220P  0.5P  1.47P  10.1P  2.93P  
06/16/2019 20:15 PDT      14.4P  2,220P     1.47P        
06/16/2019 20:30 PDT      14.3P  2,240P     1.48P        
06/16/2019 20:45 PDT      14.2P  2,220P     1.47P        
06/16/2019 21:00 PDT52P  7.5P  14.2P  2,240P  0.5P  1.48P  10.0P  3.04P  
06/16/2019 21:15 PDT      14.1P  2,220P     1.47P        
06/16/2019 21:30 PDT      14.0P  2,220P     1.47P        
06/16/2019 21:45 PDT      13.9P  2,210P     1.46P        
06/16/2019 22:00 PDT52P  7.5P  13.8P  2,220P  0.6P  1.47P  10.0P  3.14P  
06/16/2019 22:15 PDT      13.8P  2,220P     1.47P        
06/16/2019 22:30 PDT      13.7P  2,210P     1.46P        
06/16/2019 22:45 PDT      13.6P  2,220P     1.47P        
06/16/2019 23:00 PDT52P  7.4P  13.5P  2,220P  0.6P  1.47P  10.0P  3.31P  
06/16/2019 23:15 PDT      13.4P  2,220P     1.47P        
06/16/2019 23:30 PDT      13.3P  2,220P     1.47P        
06/16/2019 23:45 PDT      13.2P  2,220P     1.47P        
06/17/2019 00:00 PDT52P  7.4P  13.1P  2,220P  0.6P  1.47P  10.1P  3.38P  
06/17/2019 00:15 PDT      13.0P  2,220P     1.47P        
06/17/2019 00:30 PDT      12.9P  2,220P     1.47P        
06/17/2019 00:45 PDT      12.8P  2,220P     1.47P        
06/17/2019 01:00 PDT52P  7.4P  12.7P  2,210P  0.6P  1.46P  10.2P  3.48P  
06/17/2019 01:15 PDT      12.6P  2,210P     1.46P        
06/17/2019 01:30 PDT      12.5P  2,210P     1.46P        
06/17/2019 01:45 PDT      12.3P  2,210P     1.46P        
06/17/2019 02:00 PDT      12.2P  2,190P     1.45P        
06/17/2019 02:15 PDT      12.1P  2,210P     1.46P        
06/17/2019 02:30 PDT      12.0P  2,210P     1.46P        
06/17/2019 02:45 PDT      11.8P  2,210P     1.46P        
06/17/2019 03:00 PDT      11.7P  2,210P     1.46P        

Explanation
  P  Provisional data subject to revision.